7QMTA FWKI-FWCD
Flight info
| Callsign | 7QMTA |
|---|---|
| Flight time | 1h 17m |
| Altitude | 11500 |
| Route | DVL DCT NALSA |
| Aircraft | C210/L-SDFGY/C |
Departure
| Time | 2026-04-14 21:04 |
|---|---|
| Airport | Kamuzu International Airport (FWKI) |
Arrival
| Time | 2026-04-14 22:21 |
|---|---|
| Airport | Chelinda Airfield (FWCD) |
| Time | Latitude | Longitude | Altitude | Speed | Heading |
|---|---|---|---|---|---|
| 2026-04-14 20:55 | -13.78161 | 33.77979 | 4025 ft | 0 kts | 128° |
| 2026-04-14 20:59 | -13.78166 | 33.77971 | 4025 ft | 5 kts | 252° |
| 2026-04-14 20:59 | -13.78182 | 33.77907 | 4025 ft | 13 kts | 234° |
| 2026-04-14 20:59 | -13.78254 | 33.77837 | 4025 ft | 16 kts | 222° |
| 2026-04-14 21:00 | -13.78349 | 33.77755 | 4026 ft | 20 kts | 220° |
| 2026-04-14 21:00 | -13.78334 | 33.77651 | 4025 ft | 20 kts | 308° |
| 2026-04-14 21:00 | -13.78229 | 33.77519 | 4025 ft | 25 kts | 306° |
| 2026-04-14 21:00 | -13.78130 | 33.77384 | 4025 ft | 22 kts | 310° |
| 2026-04-14 21:01 | -13.78039 | 33.77285 | 4025 ft | 16 kts | 309° |
| 2026-04-14 21:01 | -13.77979 | 33.77213 | 4025 ft | 10 kts | 310° |
| 2026-04-14 21:01 | -13.77930 | 33.77156 | 4025 ft | 15 kts | 313° |
| 2026-04-14 21:01 | -13.77839 | 33.77041 | 4025 ft | 24 kts | 307° |
| 2026-04-14 21:02 | -13.77852 | 33.76914 | 4026 ft | 23 kts | 209° |
| 2026-04-14 21:02 | -13.78019 | 33.76981 | 4025 ft | 39 kts | 134° |
| 2026-04-14 21:02 | -13.78266 | 33.77274 | 4024 ft | 68 kts | 129° |
| 2026-04-14 21:02 | -13.78623 | 33.77713 | 4027 ft | 90 kts | 128° |
| 2026-04-14 21:03 | -13.79043 | 33.78217 | 4084 ft | 98 kts | 127° |
| 2026-04-14 21:03 | -13.79508 | 33.78771 | 4229 ft | 102 kts | 125° |
| 2026-04-14 21:03 | -13.79934 | 33.79385 | 4320 ft | 109 kts | 112° |
| 2026-04-14 21:03 | -13.80297 | 33.80056 | 4496 ft | 107 kts | 117° |
| 2026-04-14 21:04 | -13.80617 | 33.80750 | 4665 ft | 106 kts | 103° |
| 2026-04-14 21:04 | -13.80431 | 33.81424 | 4815 ft | 107 kts | 50° |
| 2026-04-14 21:04 | -13.79717 | 33.81692 | 5002 ft | 112 kts | 2° |
| 2026-04-14 21:04 | -13.78948 | 33.81648 | 5195 ft | 110 kts | 5° |
| 2026-04-14 21:05 | -13.78208 | 33.81663 | 5427 ft | 106 kts | 5° |
| 2026-04-14 21:05 | -13.77485 | 33.81653 | 5638 ft | 105 kts | 2° |
| 2026-04-14 21:05 | -13.76755 | 33.81639 | 5795 ft | 103 kts | 2° |
| 2026-04-14 21:05 | -13.75998 | 33.81595 | 5880 ft | 113 kts | 358° |
| 2026-04-14 21:06 | -13.75216 | 33.81555 | 6126 ft | 113 kts | 1° |
| 2026-04-14 21:06 | -13.74432 | 33.81545 | 6351 ft | 113 kts | 3° |
| 2026-04-14 21:06 | -13.73651 | 33.81555 | 6551 ft | 113 kts | 3° |
| 2026-04-14 21:06 | -13.72864 | 33.81585 | 6813 ft | 111 kts | 8° |
| 2026-04-14 21:07 | -13.72104 | 33.81649 | 7050 ft | 109 kts | 6° |
| 2026-04-14 21:07 | -13.71273 | 33.81696 | 7029 ft | 133 kts | 6° |
| 2026-04-14 21:07 | -13.70339 | 33.81763 | 7223 ft | 135 kts | 7° |
| 2026-04-14 21:07 | -13.69430 | 33.81838 | 7441 ft | 131 kts | 7° |
| 2026-04-14 21:08 | -13.68517 | 33.81918 | 7584 ft | 132 kts | 7° |
| 2026-04-14 21:08 | -13.67613 | 33.82000 | 7719 ft | 132 kts | 7° |
| 2026-04-14 21:08 | -13.66699 | 33.82080 | 7858 ft | 131 kts | 7° |
| 2026-04-14 21:08 | -13.65794 | 33.82163 | 7994 ft | 130 kts | 7° |
| 2026-04-14 21:09 | -13.64907 | 33.82242 | 8138 ft | 127 kts | 8° |
| 2026-04-14 21:09 | -13.64022 | 33.82322 | 8283 ft | 128 kts | 7° |
| 2026-04-14 21:09 | -13.63135 | 33.82402 | 8423 ft | 127 kts | 8° |
| 2026-04-14 21:09 | -13.62250 | 33.82482 | 8562 ft | 127 kts | 7° |
| 2026-04-14 21:10 | -13.61386 | 33.82560 | 8713 ft | 126 kts | 8° |
| 2026-04-14 21:10 | -13.60511 | 33.82638 | 8858 ft | 126 kts | 7° |
| 2026-04-14 21:10 | -13.59641 | 33.82716 | 8997 ft | 125 kts | 7° |
| 2026-04-14 21:10 | -13.58784 | 33.82794 | 9139 ft | 122 kts | 7° |
| 2026-04-14 21:11 | -13.57944 | 33.82870 | 9274 ft | 120 kts | 7° |
| 2026-04-14 21:11 | -13.57114 | 33.82944 | 9407 ft | 118 kts | 7° |
| 2026-04-14 21:11 | -13.56301 | 33.83017 | 9539 ft | 116 kts | 7° |
| 2026-04-14 21:11 | -13.55498 | 33.83090 | 9670 ft | 115 kts | 7° |
| 2026-04-14 21:12 | -13.54709 | 33.83161 | 9784 ft | 113 kts | 7° |
| 2026-04-14 21:12 | -13.53933 | 33.83231 | 9892 ft | 112 kts | 7° |
| 2026-04-14 21:12 | -13.53158 | 33.83301 | 10013 ft | 111 kts | 7° |
| 2026-04-14 21:12 | -13.52388 | 33.83371 | 10125 ft | 111 kts | 7° |
| 2026-04-14 21:13 | -13.51623 | 33.83439 | 10235 ft | 109 kts | 7° |
| 2026-04-14 21:13 | -13.50886 | 33.83506 | 10343 ft | 107 kts | 7° |
| 2026-04-14 21:13 | -13.50150 | 33.83571 | 10441 ft | 104 kts | 8° |
| 2026-04-14 21:14 | -13.48699 | 33.83702 | 10662 ft | 105 kts | 7° |
| 2026-04-14 21:14 | -13.47962 | 33.83769 | 10773 ft | 106 kts | 7° |
| 2026-04-14 21:14 | -13.47219 | 33.83836 | 10884 ft | 108 kts | 7° |
| 2026-04-14 21:14 | -13.46471 | 33.83903 | 10990 ft | 109 kts | 7° |
| 2026-04-14 21:15 | -13.45707 | 33.83971 | 11118 ft | 111 kts | 7° |
| 2026-04-14 21:15 | -13.44927 | 33.84041 | 11237 ft | 114 kts | 7° |
| 2026-04-14 21:15 | -13.44137 | 33.84111 | 11361 ft | 117 kts | 7° |
| 2026-04-14 21:15 | -13.43307 | 33.84186 | 11492 ft | 120 kts | 7° |
| 2026-04-14 21:16 | -13.42472 | 33.84262 | 11621 ft | 124 kts | 7° |
| 2026-04-14 21:16 | -13.41582 | 33.84342 | 11696 ft | 134 kts | 7° |
| 2026-04-14 21:16 | -13.40616 | 33.84429 | 11706 ft | 147 kts | 7° |
| 2026-04-14 21:16 | -13.39564 | 33.84523 | 11690 ft | 154 kts | 7° |
| 2026-04-14 21:17 | -13.38484 | 33.84620 | 11691 ft | 157 kts | 7° |
| 2026-04-14 21:17 | -13.37397 | 33.84716 | 11689 ft | 156 kts | 7° |
| 2026-04-14 21:17 | -13.36308 | 33.84814 | 11686 ft | 156 kts | 7° |
| 2026-04-14 21:17 | -13.35228 | 33.84911 | 11685 ft | 155 kts | 7° |
| 2026-04-14 21:18 | -13.34160 | 33.85007 | 11681 ft | 154 kts | 7° |
| 2026-04-14 21:18 | -13.33082 | 33.85103 | 11678 ft | 154 kts | 7° |
| 2026-04-14 21:18 | -13.32015 | 33.85200 | 11682 ft | 154 kts | 7° |
| 2026-04-14 21:18 | -13.30938 | 33.85296 | 11681 ft | 155 kts | 7° |
| 2026-04-14 21:19 | -13.29875 | 33.85392 | 11684 ft | 156 kts | 7° |
| 2026-04-14 21:19 | -13.28792 | 33.85488 | 11688 ft | 157 kts | 7° |
| 2026-04-14 21:19 | -13.27701 | 33.85587 | 11684 ft | 157 kts | 7° |
| 2026-04-14 21:19 | -13.26609 | 33.85685 | 11682 ft | 158 kts | 7° |
| 2026-04-14 21:20 | -13.25505 | 33.85784 | 11686 ft | 160 kts | 6° |
| 2026-04-14 21:20 | -13.24397 | 33.85883 | 11689 ft | 159 kts | 7° |
| 2026-04-14 21:20 | -13.23289 | 33.85983 | 11684 ft | 161 kts | 6° |
| 2026-04-14 21:20 | -13.22167 | 33.86083 | 11683 ft | 162 kts | 6° |
| 2026-04-14 21:21 | -13.21045 | 33.86184 | 11687 ft | 162 kts | 6° |
| 2026-04-14 21:21 | -13.20070 | 33.86271 | 11681 ft | 163 kts | 6° |
| 2026-04-14 21:21 | -13.18941 | 33.86373 | 11684 ft | 162 kts | 6° |
| 2026-04-14 21:21 | -13.17815 | 33.86474 | 11684 ft | 162 kts | 6° |
| 2026-04-14 21:22 | -13.16686 | 33.86575 | 11685 ft | 162 kts | 6° |
| 2026-04-14 21:22 | -13.15564 | 33.86675 | 11687 ft | 162 kts | 6° |
| 2026-04-14 21:22 | -13.14452 | 33.86775 | 11687 ft | 162 kts | 6° |
| 2026-04-14 21:22 | -13.13321 | 33.86876 | 11687 ft | 163 kts | 6° |
| 2026-04-14 21:23 | -13.12197 | 33.86977 | 11682 ft | 163 kts | 6° |
| 2026-04-14 21:23 | -13.11062 | 33.87079 | 11685 ft | 163 kts | 6° |
| 2026-04-14 21:23 | -13.09925 | 33.87181 | 11687 ft | 164 kts | 6° |
| 2026-04-14 21:23 | -13.08786 | 33.87283 | 11683 ft | 164 kts | 6° |
| 2026-04-14 21:24 | -13.07649 | 33.87385 | 11686 ft | 164 kts | 6° |
| 2026-04-14 21:24 | -13.06507 | 33.87487 | 11686 ft | 165 kts | 6° |
| 2026-04-14 21:24 | -13.05376 | 33.87589 | 11684 ft | 165 kts | 6° |
| 2026-04-14 21:24 | -13.04232 | 33.87691 | 11684 ft | 165 kts | 6° |
| 2026-04-14 21:25 | -13.03089 | 33.87793 | 11682 ft | 164 kts | 6° |
| 2026-04-14 21:25 | -13.01949 | 33.87895 | 11683 ft | 165 kts | 6° |
| 2026-04-14 21:25 | -13.00803 | 33.87998 | 11682 ft | 165 kts | 6° |
| 2026-04-14 21:25 | -12.99661 | 33.88100 | 11682 ft | 165 kts | 6° |
| 2026-04-14 21:26 | -12.98521 | 33.88191 | 11683 ft | 165 kts | 2° |
| 2026-04-14 21:26 | -12.97375 | 33.88138 | 11680 ft | 164 kts | 359° |
| 2026-04-14 21:26 | -12.96230 | 33.88108 | 11680 ft | 165 kts | 0° |
| 2026-04-14 21:26 | -12.95079 | 33.88073 | 11679 ft | 165 kts | 359° |
| 2026-04-14 21:27 | -12.93930 | 33.88033 | 11681 ft | 166 kts | 359° |
| 2026-04-14 21:27 | -12.92772 | 33.87992 | 11684 ft | 167 kts | 359° |
| 2026-04-14 21:27 | -12.91612 | 33.87952 | 11683 ft | 166 kts | 359° |
| 2026-04-14 21:27 | -12.90455 | 33.87911 | 11680 ft | 166 kts | 359° |
| 2026-04-14 21:28 | -12.89304 | 33.87871 | 11683 ft | 166 kts | 359° |
| 2026-04-14 21:28 | -12.88159 | 33.87832 | 11683 ft | 166 kts | 359° |
| 2026-04-14 21:28 | -12.87006 | 33.87791 | 11684 ft | 165 kts | 359° |
| 2026-04-14 21:28 | -12.85854 | 33.87751 | 11682 ft | 164 kts | 359° |
| 2026-04-14 21:29 | -12.84700 | 33.87711 | 11688 ft | 167 kts | 359° |
| 2026-04-14 21:29 | -12.83529 | 33.87670 | 11677 ft | 167 kts | 359° |
| 2026-04-14 21:29 | -12.82374 | 33.87629 | 11676 ft | 165 kts | 359° |
| 2026-04-14 21:29 | -12.81228 | 33.87589 | 11675 ft | 165 kts | 359° |
| 2026-04-14 21:30 | -12.80080 | 33.87549 | 11675 ft | 165 kts | 359° |
| 2026-04-14 21:30 | -12.78934 | 33.87509 | 11669 ft | 165 kts | 359° |
| 2026-04-14 21:30 | -12.77787 | 33.87468 | 11671 ft | 165 kts | 359° |
| 2026-04-14 21:30 | -12.76635 | 33.87429 | 11673 ft | 166 kts | 359° |
| 2026-04-14 21:31 | -12.75494 | 33.87389 | 11679 ft | 167 kts | 359° |
| 2026-04-14 21:31 | -12.74326 | 33.87348 | 11683 ft | 168 kts | 359° |
| 2026-04-14 21:31 | -12.73161 | 33.87308 | 11677 ft | 166 kts | 360° |
| 2026-04-14 21:31 | -12.72007 | 33.87268 | 11676 ft | 166 kts | 359° |
| 2026-04-14 21:32 | -12.70854 | 33.87227 | 11678 ft | 166 kts | 359° |
| 2026-04-14 21:32 | -12.69690 | 33.87187 | 11680 ft | 168 kts | 359° |
| 2026-04-14 21:32 | -12.68521 | 33.87146 | 11685 ft | 169 kts | 359° |
| 2026-04-14 21:32 | -12.67341 | 33.87105 | 11673 ft | 169 kts | 359° |
| 2026-04-14 21:33 | -12.66171 | 33.87063 | 11675 ft | 166 kts | 359° |
| 2026-04-14 21:33 | -12.65027 | 33.87024 | 11671 ft | 167 kts | 359° |
| 2026-04-14 21:33 | -12.63860 | 33.86984 | 11673 ft | 167 kts | 359° |
| 2026-04-14 21:33 | -12.62702 | 33.86942 | 11669 ft | 165 kts | 359° |
| 2026-04-14 21:34 | -12.61555 | 33.86903 | 11668 ft | 166 kts | 359° |
| 2026-04-14 21:34 | -12.60396 | 33.86863 | 11670 ft | 167 kts | 359° |
| 2026-04-14 21:34 | -12.59240 | 33.86822 | 11675 ft | 166 kts | 359° |
| 2026-04-14 21:34 | -12.58078 | 33.86782 | 11669 ft | 166 kts | 359° |
| 2026-04-14 21:35 | -12.56927 | 33.86742 | 11667 ft | 165 kts | 359° |
| 2026-04-14 21:35 | -12.55786 | 33.86702 | 11671 ft | 164 kts | 359° |
| 2026-04-14 21:35 | -12.54639 | 33.86662 | 11679 ft | 167 kts | 360° |
| 2026-04-14 21:35 | -12.53867 | 33.86636 | 11684 ft | 168 kts | 359° |
| 2026-04-14 21:36 | -12.52704 | 33.86595 | 11686 ft | 167 kts | 360° |
| 2026-04-14 21:36 | -12.51159 | 33.86541 | 11680 ft | 167 kts | 359° |
| 2026-04-14 21:36 | -12.49996 | 33.86501 | 11682 ft | 168 kts | 359° |
| 2026-04-14 21:36 | -12.49210 | 33.86473 | 11684 ft | 168 kts | 359° |
| 2026-04-14 21:37 | -12.48043 | 33.86432 | 11682 ft | 168 kts | 359° |
| 2026-04-14 21:37 | -12.46879 | 33.86392 | 11684 ft | 167 kts | 359° |
| 2026-04-14 21:37 | -12.45712 | 33.86351 | 11683 ft | 169 kts | 359° |
| 2026-04-14 21:37 | -12.44539 | 33.86311 | 11686 ft | 168 kts | 359° |
| 2026-04-14 21:38 | -12.43379 | 33.86271 | 11682 ft | 170 kts | 359° |
| 2026-04-14 21:38 | -12.42199 | 33.86230 | 11682 ft | 169 kts | 359° |
| 2026-04-14 21:38 | -12.41012 | 33.86188 | 11674 ft | 170 kts | 359° |
| 2026-04-14 21:38 | -12.39840 | 33.86146 | 11665 ft | 166 kts | 359° |
| 2026-04-14 21:39 | -12.38695 | 33.86107 | 11677 ft | 164 kts | 359° |
| 2026-04-14 21:39 | -12.37556 | 33.86067 | 11670 ft | 162 kts | 359° |
| 2026-04-14 21:39 | -12.36431 | 33.86028 | 11673 ft | 160 kts | 359° |
| 2026-04-14 21:39 | -12.35316 | 33.85990 | 11673 ft | 160 kts | 359° |
| 2026-04-14 21:40 | -12.34210 | 33.85952 | 11675 ft | 160 kts | 359° |
| 2026-04-14 21:40 | -12.33088 | 33.85913 | 11678 ft | 160 kts | 360° |
| 2026-04-14 21:40 | -12.31966 | 33.85873 | 11682 ft | 162 kts | 359° |
| 2026-04-14 21:40 | -12.30835 | 33.85834 | 11676 ft | 163 kts | 359° |
| 2026-04-14 21:41 | -12.29694 | 33.85795 | 11680 ft | 165 kts | 359° |
| 2026-04-14 21:41 | -12.28543 | 33.85754 | 11682 ft | 165 kts | 360° |
| 2026-04-14 21:41 | -12.27417 | 33.85715 | 11683 ft | 164 kts | 359° |
| 2026-04-14 21:41 | -12.26284 | 33.85675 | 11681 ft | 163 kts | 359° |
| 2026-04-14 21:42 | -12.25144 | 33.85637 | 11679 ft | 164 kts | 0° |
| 2026-04-14 21:42 | -12.24000 | 33.85597 | 11675 ft | 163 kts | 359° |
| 2026-04-14 21:42 | -12.22868 | 33.85557 | 11676 ft | 163 kts | 359° |
| 2026-04-14 21:42 | -12.21738 | 33.85518 | 11669 ft | 163 kts | 359° |
| 2026-04-14 21:43 | -12.20609 | 33.85479 | 11669 ft | 162 kts | 359° |
| 2026-04-14 21:43 | -12.19481 | 33.85440 | 11669 ft | 162 kts | 359° |
| 2026-04-14 21:43 | -12.18352 | 33.85401 | 11667 ft | 163 kts | 359° |
| 2026-04-14 21:43 | -12.17221 | 33.85361 | 11676 ft | 163 kts | 359° |
| 2026-04-14 21:44 | -12.16081 | 33.85321 | 11676 ft | 164 kts | 359° |
| 2026-04-14 21:44 | -12.14940 | 33.85282 | 11679 ft | 164 kts | 359° |
| 2026-04-14 21:44 | -12.13797 | 33.85242 | 11684 ft | 165 kts | 360° |
| 2026-04-14 21:44 | -12.12667 | 33.85203 | 11677 ft | 163 kts | 359° |
| 2026-04-14 21:45 | -12.11538 | 33.85163 | 11673 ft | 162 kts | 360° |
| 2026-04-14 21:45 | -12.10415 | 33.85125 | 11667 ft | 161 kts | 359° |
| 2026-04-14 21:45 | -12.09291 | 33.85086 | 11675 ft | 162 kts | 360° |
| 2026-04-14 21:45 | -12.08163 | 33.85047 | 11675 ft | 162 kts | 359° |
| 2026-04-14 21:46 | -12.07029 | 33.85007 | 11678 ft | 164 kts | 359° |
| 2026-04-14 21:46 | -12.05887 | 33.84967 | 11674 ft | 163 kts | 360° |
| 2026-04-14 21:46 | -12.04756 | 33.84928 | 11674 ft | 163 kts | 360° |
| 2026-04-14 21:46 | -12.03630 | 33.84889 | 11680 ft | 166 kts | 360° |
| 2026-04-14 21:47 | -12.02472 | 33.84850 | 11682 ft | 167 kts | 360° |
| 2026-04-14 21:47 | -12.01316 | 33.84811 | 11687 ft | 166 kts | 360° |
| 2026-04-14 21:47 | -12.00157 | 33.84766 | 11684 ft | 168 kts | 360° |
| 2026-04-14 21:47 | -11.98975 | 33.84727 | 11683 ft | 169 kts | 360° |
| 2026-04-14 21:48 | -11.97806 | 33.84686 | 11685 ft | 168 kts | 359° |
| 2026-04-14 21:48 | -11.96635 | 33.84647 | 11678 ft | 167 kts | 360° |
| 2026-04-14 21:48 | -11.95469 | 33.84606 | 11675 ft | 168 kts | 359° |
| 2026-04-14 21:48 | -11.94323 | 33.84566 | 11672 ft | 166 kts | 360° |
| 2026-04-14 21:49 | -11.93173 | 33.84527 | 11672 ft | 165 kts | 360° |
| 2026-04-14 21:49 | -11.92029 | 33.84487 | 11672 ft | 164 kts | 360° |
| 2026-04-14 21:49 | -11.90892 | 33.84447 | 11672 ft | 164 kts | 360° |
| 2026-04-14 21:49 | -11.89754 | 33.84408 | 11668 ft | 163 kts | 360° |
| 2026-04-14 21:50 | -11.88625 | 33.84369 | 11668 ft | 162 kts | 360° |
| 2026-04-14 21:50 | -11.87491 | 33.84329 | 11671 ft | 164 kts | 360° |
| 2026-04-14 21:50 | -11.86348 | 33.84291 | 11673 ft | 164 kts | 359° |
| 2026-04-14 21:50 | -11.85187 | 33.84250 | 11681 ft | 171 kts | 0° |
| 2026-04-14 21:51 | -11.83995 | 33.84209 | 11675 ft | 169 kts | 360° |
| 2026-04-14 21:51 | -11.82830 | 33.84168 | 11673 ft | 167 kts | 360° |
| 2026-04-14 21:51 | -11.81675 | 33.84128 | 11667 ft | 166 kts | 359° |
| 2026-04-14 21:51 | -11.80521 | 33.84089 | 11668 ft | 166 kts | 360° |
| 2026-04-14 21:52 | -11.79365 | 33.84049 | 11671 ft | 167 kts | 359° |
| 2026-04-14 21:52 | -11.78203 | 33.84008 | 11676 ft | 167 kts | 359° |
| 2026-04-14 21:52 | -11.77037 | 33.83967 | 11676 ft | 167 kts | 360° |
| 2026-04-14 21:52 | -11.75905 | 33.83928 | 11670 ft | 164 kts | 360° |
| 2026-04-14 21:53 | -11.74766 | 33.83890 | 11673 ft | 164 kts | 360° |
| 2026-04-14 21:53 | -11.73628 | 33.83850 | 11673 ft | 163 kts | 360° |
| 2026-04-14 21:53 | -11.72488 | 33.83809 | 11681 ft | 165 kts | 359° |
| 2026-04-14 21:53 | -11.71332 | 33.83770 | 11682 ft | 166 kts | 0° |
| 2026-04-14 21:54 | -11.70170 | 33.83731 | 11677 ft | 167 kts | 360° |
| 2026-04-14 21:54 | -11.69022 | 33.83690 | 11677 ft | 166 kts | 359° |
| 2026-04-14 21:54 | -11.67867 | 33.83650 | 11673 ft | 166 kts | 360° |
| 2026-04-14 21:54 | -11.66715 | 33.83610 | 11672 ft | 166 kts | 360° |
| 2026-04-14 21:55 | -11.65565 | 33.83571 | 11679 ft | 166 kts | 360° |
| 2026-04-14 21:55 | -11.64410 | 33.83531 | 11676 ft | 166 kts | 360° |
| 2026-04-14 21:55 | -11.63258 | 33.83491 | 11679 ft | 166 kts | 360° |
| 2026-04-14 21:55 | -11.62110 | 33.83452 | 11680 ft | 167 kts | 359° |
| 2026-04-14 21:56 | -11.60939 | 33.83411 | 11673 ft | 165 kts | 360° |
| 2026-04-14 21:56 | -11.59788 | 33.83370 | 11675 ft | 166 kts | 360° |
| 2026-04-14 21:56 | -11.58644 | 33.83331 | 11670 ft | 164 kts | 360° |
| 2026-04-14 21:56 | -11.57522 | 33.83292 | 11670 ft | 162 kts | 360° |
| 2026-04-14 21:57 | -11.56384 | 33.83253 | 11675 ft | 165 kts | 359° |
| 2026-04-14 21:57 | -11.55233 | 33.83214 | 11675 ft | 165 kts | 360° |
| 2026-04-14 21:57 | -11.54085 | 33.83174 | 11679 ft | 165 kts | 359° |
| 2026-04-14 21:57 | -11.52936 | 33.83134 | 11674 ft | 165 kts | 360° |
| 2026-04-14 21:58 | -11.51785 | 33.83094 | 11678 ft | 164 kts | 359° |
| 2026-04-14 21:58 | -11.50648 | 33.83053 | 11674 ft | 163 kts | 359° |
| 2026-04-14 21:58 | -11.49515 | 33.83016 | 11668 ft | 163 kts | 359° |
| 2026-04-14 21:58 | -11.48376 | 33.82977 | 11667 ft | 163 kts | 360° |
| 2026-04-14 21:59 | -11.47257 | 33.82938 | 11669 ft | 163 kts | 359° |
| 2026-04-14 21:59 | -11.46126 | 33.82899 | 11670 ft | 163 kts | 359° |
| 2026-04-14 21:59 | -11.44992 | 33.82859 | 11671 ft | 163 kts | 359° |
| 2026-04-14 21:59 | -11.43856 | 33.82820 | 11668 ft | 162 kts | 359° |
| 2026-04-14 22:00 | -11.42728 | 33.82781 | 11669 ft | 162 kts | 359° |
| 2026-04-14 22:00 | -11.41596 | 33.82742 | 11668 ft | 163 kts | 359° |
| 2026-04-14 22:00 | -11.40467 | 33.82702 | 11667 ft | 163 kts | 359° |
| 2026-04-14 22:00 | -11.39340 | 33.82664 | 11679 ft | 161 kts | 360° |
| 2026-04-14 22:01 | -11.38216 | 33.82626 | 11676 ft | 162 kts | 359° |
| 2026-04-14 22:01 | -11.37103 | 33.82588 | 11674 ft | 162 kts | 359° |
| 2026-04-14 22:01 | -11.35974 | 33.82548 | 11675 ft | 162 kts | 360° |
| 2026-04-14 22:01 | -11.34842 | 33.82509 | 11674 ft | 162 kts | 359° |
| 2026-04-14 22:02 | -11.33715 | 33.82470 | 11675 ft | 162 kts | 359° |
| 2026-04-14 22:02 | -11.32587 | 33.82431 | 11674 ft | 162 kts | 359° |
| 2026-04-14 22:02 | -11.31474 | 33.82393 | 11675 ft | 162 kts | 359° |
| 2026-04-14 22:02 | -11.30346 | 33.82354 | 11674 ft | 162 kts | 359° |
| 2026-04-14 22:03 | -11.29214 | 33.82315 | 11679 ft | 163 kts | 359° |
| 2026-04-14 22:03 | -11.28079 | 33.82275 | 11680 ft | 163 kts | 359° |
| 2026-04-14 22:03 | -11.26940 | 33.82236 | 11681 ft | 164 kts | 359° |
| 2026-04-14 22:03 | -11.25794 | 33.82197 | 11684 ft | 164 kts | 360° |
| 2026-04-14 22:04 | -11.24650 | 33.82157 | 11683 ft | 164 kts | 359° |
| 2026-04-14 22:04 | -11.23514 | 33.82118 | 11680 ft | 163 kts | 359° |
| 2026-04-14 22:04 | -11.22383 | 33.82079 | 11676 ft | 162 kts | 359° |
| 2026-04-14 22:04 | -11.21271 | 33.82041 | 11677 ft | 161 kts | 359° |
| 2026-04-14 22:05 | -11.20141 | 33.82002 | 11674 ft | 162 kts | 359° |
| 2026-04-14 22:05 | -11.19013 | 33.81963 | 11673 ft | 162 kts | 359° |
| 2026-04-14 22:05 | -11.17880 | 33.81924 | 11677 ft | 163 kts | 359° |
| 2026-04-14 22:05 | -11.16745 | 33.81885 | 11677 ft | 163 kts | 359° |
| 2026-04-14 22:06 | -11.15610 | 33.81846 | 11675 ft | 163 kts | 359° |
| 2026-04-14 22:06 | -11.14473 | 33.81806 | 11679 ft | 163 kts | 359° |
| 2026-04-14 22:06 | -11.13336 | 33.81767 | 11680 ft | 164 kts | 359° |
| 2026-04-14 22:06 | -11.12196 | 33.81727 | 11677 ft | 164 kts | 360° |
| 2026-04-14 22:07 | -11.11052 | 33.81688 | 11679 ft | 164 kts | 360° |
| 2026-04-14 22:07 | -11.09912 | 33.81649 | 11678 ft | 164 kts | 359° |
| 2026-04-14 22:07 | -11.08791 | 33.81611 | 11678 ft | 163 kts | 359° |
| 2026-04-14 22:07 | -11.07651 | 33.81571 | 11679 ft | 164 kts | 359° |
| 2026-04-14 22:08 | -11.06511 | 33.81531 | 11679 ft | 164 kts | 359° |
| 2026-04-14 22:08 | -11.05369 | 33.81492 | 11678 ft | 164 kts | 359° |
| 2026-04-14 22:08 | -11.04232 | 33.81453 | 11678 ft | 163 kts | 360° |
| 2026-04-14 22:08 | -11.03095 | 33.81414 | 11677 ft | 163 kts | 359° |
| 2026-04-14 22:09 | -11.01975 | 33.81376 | 11676 ft | 163 kts | 359° |
| 2026-04-14 22:09 | -11.00849 | 33.81337 | 11670 ft | 161 kts | 359° |
| 2026-04-14 22:09 | -10.99733 | 33.81298 | 11671 ft | 159 kts | 360° |
| 2026-04-14 22:09 | -10.98618 | 33.81260 | 11670 ft | 160 kts | 359° |
| 2026-04-14 22:10 | -10.97498 | 33.81222 | 11670 ft | 161 kts | 360° |
| 2026-04-14 22:10 | -10.96384 | 33.81184 | 11678 ft | 158 kts | 360° |
| 2026-04-14 22:10 | -10.95280 | 33.81146 | 11672 ft | 159 kts | 359° |
| 2026-04-14 22:10 | -10.94170 | 33.81107 | 11678 ft | 159 kts | 360° |
| 2026-04-14 22:11 | -10.93055 | 33.81069 | 11679 ft | 162 kts | 360° |
| 2026-04-14 22:11 | -10.91941 | 33.81031 | 11679 ft | 163 kts | 360° |
| 2026-04-14 22:11 | -10.90814 | 33.80982 | 11682 ft | 162 kts | 358° |
| 2026-04-14 22:11 | -10.89688 | 33.80868 | 11680 ft | 163 kts | 353° |
| 2026-04-14 22:12 | -10.88537 | 33.80668 | 11558 ft | 170 kts | 351° |
| 2026-04-14 22:12 | -10.87373 | 33.80461 | 11439 ft | 171 kts | 352° |
| 2026-04-14 22:12 | -10.86203 | 33.80252 | 11319 ft | 170 kts | 352° |
| 2026-04-14 22:12 | -10.85033 | 33.80043 | 11196 ft | 170 kts | 351° |
| 2026-04-14 22:13 | -10.83868 | 33.79838 | 11071 ft | 170 kts | 352° |
| 2026-04-14 22:13 | -10.82712 | 33.79631 | 10935 ft | 167 kts | 351° |
| 2026-04-14 22:13 | -10.81567 | 33.79425 | 10814 ft | 167 kts | 352° |
| 2026-04-14 22:13 | -10.80430 | 33.79219 | 10687 ft | 168 kts | 352° |
| 2026-04-14 22:14 | -10.79273 | 33.79050 | 10685 ft | 167 kts | 354° |
| 2026-04-14 22:14 | -10.78112 | 33.78921 | 10684 ft | 167 kts | 356° |
| 2026-04-14 22:14 | -10.77056 | 33.78829 | 10624 ft | 169 kts | 355° |
| 2026-04-14 22:14 | -10.75964 | 33.78759 | 10669 ft | 163 kts | 357° |
| 2026-04-14 22:15 | -10.74858 | 33.78654 | 10702 ft | 161 kts | 356° |
| 2026-04-14 22:15 | -10.73748 | 33.78550 | 10711 ft | 160 kts | 356° |
| 2026-04-14 22:15 | -10.72633 | 33.78444 | 10707 ft | 161 kts | 357° |
| 2026-04-14 22:16 | -10.71711 | 33.78357 | 10713 ft | 163 kts | 356° |
| 2026-04-14 22:16 | -10.70583 | 33.78249 | 10715 ft | 163 kts | 356° |
| 2026-04-14 22:16 | -10.69457 | 33.78142 | 10707 ft | 162 kts | 356° |
| 2026-04-14 22:16 | -10.68334 | 33.78036 | 10717 ft | 162 kts | 357° |
| 2026-04-14 22:17 | -10.67203 | 33.77928 | 10715 ft | 162 kts | 356° |
| 2026-04-14 22:17 | -10.66074 | 33.77820 | 10719 ft | 164 kts | 356° |
| 2026-04-14 22:17 | -10.64931 | 33.77712 | 10721 ft | 165 kts | 356° |
| 2026-04-14 22:17 | -10.63809 | 33.77604 | 10622 ft | 158 kts | 356° |
| 2026-04-14 22:18 | -10.62716 | 33.77496 | 10475 ft | 154 kts | 356° |
| 2026-04-14 22:18 | -10.61666 | 33.77392 | 10331 ft | 149 kts | 356° |
| 2026-04-14 22:18 | -10.60710 | 33.77290 | 10062 ft | 129 kts | 356° |
| 2026-04-14 22:18 | -10.59858 | 33.77162 | 9754 ft | 121 kts | 353° |
| 2026-04-14 22:19 | -10.59042 | 33.77024 | 9427 ft | 117 kts | 355° |
| 2026-04-14 22:19 | -10.57519 | 33.77117 | 8645 ft | 103 kts | 20° |
| 2026-04-14 22:19 | -10.56856 | 33.77366 | 8225 ft | 101 kts | 21° |
| 2026-04-14 22:20 | -10.56277 | 33.77735 | 8079 ft | 103 kts | 54° |
| 2026-04-14 22:20 | -10.56031 | 33.78351 | 7981 ft | 94 kts | 79° |
| 2026-04-14 22:20 | -10.55887 | 33.79044 | 7854 ft | 106 kts | 77° |
| 2026-04-14 22:20 | -10.55733 | 33.79700 | 7770 ft | 81 kts | 76° |
| 2026-04-14 22:21 | -10.55628 | 33.80163 | 7768 ft | 54 kts | 76° |
| 2026-04-14 22:21 | -10.55644 | 33.80316 | 7772 ft | 10 kts | 161° |
| 2026-04-14 22:21 | -10.55681 | 33.80333 | 7768 ft | 0 kts | 158° |